Time;durP1;ratioP1;P1;durP2;ratioP2;P2;SDS_P1;SDS_P2;PMS_P1;PMS_P2;Temp;Humidity;BMP_temperature;BMP_pressure;BME280_temperature;BME280_humidity;BME280_pressure;Samples;Min_cycle;Max_cycle;Signal;HPM_P1;HPM_P2
2021/06/19 00:00:57;;;;;;;5.95;4.15;;;;;;;21.56;65.54;97934.09;4993669;28;20037;-74
2021/06/19 00:03:23;;;;;;;6.63;4.85;;;;;;;21.59;65.72;97943.69;4993317;28;20557;-74
2021/06/19 00:05:49;;;;;;;7.72;4.18;;;;;;;21.57;66.10;97946.88;4993850;28;20518;-73
2021/06/19 00:08:14;;;;;;;4.68;4.28;;;;;;;21.56;66.27;97950.00;4990837;28;20508;-73
2021/06/19 00:10:41;;;;;;;8.05;4.38;;;;;;;21.55;66.33;97956.75;4992511;28;20026;-75
2021/06/19 00:13:08;;;;;;;6.07;3.80;;;;;;;21.46;66.50;97950.63;4993421;28;20084;-74
2021/06/19 00:15:34;;;;;;;6.93;4.00;;;;;;;21.50;66.86;97957.84;4993224;28;20022;-74
2021/06/19 00:18:00;;;;;;;6.80;4.28;;;;;;;21.49;66.81;97955.44;4993245;28;20038;-73
2021/06/19 00:20:26;;;;;;;8.77;3.88;;;;;;;21.48;66.79;97963.00;4993255;28;20026;-73
2021/06/19 00:22:53;;;;;;;5.00;3.53;;;;;;;21.44;66.79;97959.31;4993269;28;20034;-74
2021/06/19 00:25:21;;;;;;;6.60;3.72;;;;;;;21.46;66.97;97942.25;4992884;28;20026;-73
2021/06/19 00:27:46;;;;;;;5.97;4.32;;;;;;;21.41;66.66;97937.78;4991732;28;20117;-73
2021/06/19 00:30:15;;;;;;;4.80;4.13;;;;;;;21.36;66.83;97941.66;4993132;28;20443;-73
2021/06/19 00:32:41;;;;;;;4.28;3.80;;;;;;;21.33;67.04;97941.59;4993303;28;20796;-74
2021/06/19 00:35:08;;;;;;;4.30;3.40;;;;;;;21.06;67.52;97942.56;4992970;28;20037;-74
2021/06/19 00:37:35;;;;;;;6.35;4.90;;;;;;;20.81;68.05;97944.78;4993333;28;20026;-74
2021/06/19 00:40:01;;;;;;;4.50;3.90;;;;;;;20.86;68.27;97947.31;4992556;28;20038;-74
2021/06/19 00:42:27;;;;;;;7.03;4.15;;;;;;;20.89;68.82;97943.78;4991772;28;20399;-74
2021/06/19 00:44:56;;;;;;;6.00;4.70;;;;;;;20.92;69.04;97950.59;4992562;28;20034;-74
2021/06/19 00:47:21;;;;;;;6.30;4.55;;;;;;;20.88;69.10;97952.50;4992713;28;20495;-74
2021/06/19 00:49:47;;;;;;;6.65;4.90;;;;;;;20.90;68.90;97941.78;4992589;28;20034;-73
2021/06/19 00:52:12;;;;;;;5.88;3.90;;;;;;;20.94;68.93;97940.72;4991793;28;20045;-73
2021/06/19 00:54:38;;;;;;;5.75;4.57;;;;;;;20.98;68.97;97936.06;4975396;28;20451;-75
2021/06/19 00:57:06;;;;;;;6.78;4.53;;;;;;;20.99;68.89;97940.41;4993580;28;20033;-73
2021/06/19 00:59:31;;;;;;;7.20;5.40;;;;;;;20.86;70.03;97933.41;4993029;28;20034;-73
2021/06/19 01:01:57;;;;;;;14.02;9.32;;;;;;;20.80;70.61;97930.06;4992618;28;20041;-75
2021/06/19 01:04:22;;;;;;;15.25;10.35;;;;;;;20.66;71.54;97931.72;4992237;28;20037;-74
2021/06/19 01:06:47;;;;;;;14.68;10.23;;;;;;;20.61;71.49;97932.03;4992686;28;20038;-73
2021/06/19 01:09:13;;;;;;;12.32;10.13;;;;;;;20.51;72.09;97927.00;4992265;28;20026;-73
2021/06/19 01:11:39;;;;;;;12.15;9.10;;;;;;;20.51;72.22;97921.44;4974993;28;20119;-73
2021/06/19 01:14:06;;;;;;;10.82;8.27;;;;;;;20.44;72.36;97913.75;4992344;28;20434;-73
2021/06/19 01:16:34;;;;;;;12.65;7.78;;;;;;;20.50;72.42;97914.28;4992270;28;20027;-73
2021/06/19 01:18:59;;;;;;;10.05;8.60;;;;;;;20.34;73.08;97905.16;4992329;28;20030;-75
2021/06/19 01:21:27;;;;;;;11.65;8.55;;;;;;;20.32;73.08;97918.59;4991771;28;20032;-74
2021/06/19 01:23:53;;;;;;;13.38;7.85;;;;;;;20.36;73.23;97919.50;4992041;28;20497;-73
2021/06/19 01:26:30;;;;;;;7.65;6.85;;;;;;;20.42;72.80;97921.66;4992044;28;20084;-74
2021/06/19 01:28:58;;;;;;;11.02;7.32;;;;;;;20.50;72.67;97925.38;4992062;28;20041;-73
2021/06/19 01:31:24;;;;;;;12.05;7.28;;;;;;;20.50;72.56;97919.81;4990606;28;20082;-73
2021/06/19 01:33:51;;;;;;;8.02;6.57;;;;;;;20.51;72.60;97916.69;4991875;28;20049;-76
2021/06/19 01:36:18;;;;;;;7.90;7.13;;;;;;;20.51;72.38;97911.16;4992317;28;20065;-74
2021/06/19 01:38:48;;;;;;;9.55;7.30;;;;;;;20.52;72.49;97912.72;4991846;28;20032;-75
2021/06/19 01:41:17;;;;;;;7.70;5.63;;;;;;;20.35;72.63;97907.56;4991811;28;20031;-72
2021/06/19 01:43:44;;;;;;;9.70;5.22;;;;;;;20.43;72.66;97911.31;4991710;28;20081;-74
2021/06/19 01:46:10;;;;;;;6.68;5.32;;;;;;;20.45;72.54;97909.00;4991671;28;20109;-73
2021/06/19 01:48:36;;;;;;;7.22;4.68;;;;;;;20.39;72.81;97900.13;4990140;28;20050;-73
2021/06/19 01:51:01;;;;;;;6.63;4.32;;;;;;;20.31;72.78;97890.00;4991604;28;20084;-72
2021/06/19 01:53:27;;;;;;;6.80;5.50;;;;;;;20.41;73.20;97894.19;4991718;28;20364;-72
2021/06/19 01:55:52;;;;;;;8.48;5.18;;;;;;;20.41;73.49;97892.25;4991496;28;20032;-73
2021/06/19 01:58:19;;;;;;;5.80;5.20;;;;;;;20.42;74.15;97895.81;4991561;28;20434;-74
2021/06/19 02:00:45;;;;;;;6.80;4.75;;;;;;;20.40;74.46;97893.41;4991792;28;20031;-74
2021/06/19 02:03:10;;;;;;;7.00;4.72;;;;;;;20.40;74.46;97892.59;4991615;28;20105;-74
2021/06/19 02:05:36;;;;;;;6.97;5.63;;;;;;;20.39;74.54;97896.56;4973991;28;20058;-73
2021/06/19 02:08:04;;;;;;;6.82;5.00;;;;;;;20.35;75.11;97890.91;4991970;28;20478;-75
2021/06/19 02:10:32;;;;;;;6.28;5.55;;;;;;;20.32;75.19;97890.81;4991313;28;20026;-76
2021/06/19 02:12:59;;;;;;;6.22;5.60;;;;;;;20.30;75.49;97889.19;4991373;28;20042;-73
2021/06/19 02:15:25;;;;;;;8.88;5.75;;;;;;;20.19;75.81;97887.31;4991379;28;20088;-75
2021/06/19 02:17:51;;;;;;;7.90;5.65;;;;;;;20.23;75.79;97888.19;4991300;28;20034;-74
2021/06/19 02:20:19;;;;;;;6.88;5.82;;;;;;;20.22;75.67;97892.94;4991341;28;20023;-74
2021/06/19 02:22:44;;;;;;;6.05;5.18;;;;;;;20.16;75.65;97883.28;4991165;28;20070;-74
2021/06/19 02:25:13;;;;;;;10.25;6.63;;;;;;;20.28;75.86;97890.72;4995733;28;20108;-74
2021/06/19 02:27:56;;;;;;;8.38;6.07;;;;;;;20.20;76.06;97886.94;5010591;28;20041;-74
2021/06/19 02:30:27;;;;;;;7.05;5.60;;;;;;;20.01;76.57;97883.28;4995966;28;20041;-75
2021/06/19 02:32:54;;;;;;;6.82;5.38;;;;;;;20.04;76.69;97880.59;4994451;28;20399;-74
2021/06/19 02:35:22;;;;;;;8.05;6.25;;;;;;;20.04;76.92;97880.59;4997445;28;20080;-74
2021/06/19 02:37:47;;;;;;;9.85;5.82;;;;;;;20.01;76.95;97884.09;4997819;28;20026;-74
2021/06/19 02:40:13;;;;;;;13.75;7.05;;;;;;;20.01;76.78;97891.63;4997138;28;20494;-74
2021/06/19 02:42:40;;;;;;;7.70;5.70;;;;;;;19.92;77.17;97889.03;5012302;28;20021;-74
2021/06/19 02:45:12;;;;;;;9.10;6.00;;;;;;;19.95;76.65;97893.06;4998942;28;20040;-76
2021/06/19 02:47:40;;;;;;;9.27;5.68;;;;;;;19.90;76.64;97894.09;5016855;28;20060;-75
2021/06/19 02:50:07;;;;;;;6.80;6.00;;;;;;;20.01;76.36;97908.28;5016865;28;20076;-76
2021/06/19 02:52:33;;;;;;;8.10;6.00;;;;;;;19.98;76.52;97901.47;5016631;28;20022;-75
2021/06/19 02:54:58;;;;;;;10.23;4.90;;;;;;;19.93;76.61;97896.16;4999013;28;20025;-75
2021/06/19 02:57:24;;;;;;;7.15;4.93;;;;;;;19.88;76.73;97899.22;5016849;28;20109;-74
2021/06/19 02:59:49;;;;;;;7.13;4.55;;;;;;;19.83;77.04;97902.25;5016913;28;20052;-75
2021/06/19 03:02:14;;;;;;;4.97;4.53;;;;;;;19.81;77.05;97893.47;5016868;28;20030;-74
2021/06/19 03:04:40;;;;;;;8.65;4.93;;;;;;;19.77;76.93;97898.13;5016704;28;20062;-74
2021/06/19 03:07:05;;;;;;;5.97;4.85;;;;;;;19.71;77.40;97903.13;5017148;28;20030;-75
2021/06/19 03:09:30;;;;;;;5.95;5.20;;;;;;;19.70;77.30;97898.75;5016470;28;20096;-74
2021/06/19 03:11:56;;;;;;;5.05;4.55;;;;;;;19.65;77.56;97900.97;5016663;28;20030;-75
2021/06/19 03:14:21;;;;;;;9.93;5.82;;;;;;;19.73;77.77;97913.91;5016344;28;20478;-74
2021/06/19 03:16:47;;;;;;;8.70;5.80;;;;;;;19.66;78.03;97917.28;5016549;28;20030;-75
2021/06/19 03:19:12;;;;;;;7.82;5.80;;;;;;;19.61;78.53;97908.38;5000927;28;20382;-74
2021/06/19 03:21:38;;;;;;;8.50;5.45;;;;;;;19.63;78.63;97925.53;4996757;28;20030;-75
2021/06/19 03:24:04;;;;;;;9.43;6.05;;;;;;;19.60;78.98;97923.44;4996560;28;20037;-75
2021/06/19 03:26:29;;;;;;;6.90;5.30;;;;;;;19.58;79.29;97922.97;4996904;28;20414;-75
2021/06/19 03:28:55;;;;;;;15.35;7.15;;;;;;;19.58;79.20;97915.47;4996436;28;20092;-75
2021/06/19 03:31:20;;;;;;;11.80;6.65;;;;;;;19.64;79.03;97916.03;4979504;28;20037;-74
2021/06/19 03:33:46;;;;;;;8.30;6.47;;;;;;;19.48;78.97;97917.97;4996671;28;20548;-73
2021/06/19 03:36:11;;;;;;;12.00;5.55;;;;;;;19.24;79.70;97900.22;4996959;28;20022;-73
2021/06/19 03:38:36;;;;;;;10.05;6.43;;;;;;;19.44;79.53;97925.38;4979365;28;20062;-75
2021/06/19 03:41:02;;;;;;;9.18;6.05;;;;;;;19.44;79.39;97919.81;4996557;28;20040;-74
2021/06/19 03:43:27;;;;;;;7.78;6.65;;;;;;;19.41;79.86;97917.75;4995234;28;20026;-74
2021/06/19 03:45:53;;;;;;;9.27;7.00;;;;;;;19.32;79.68;97926.22;4993361;28;20030;-74
2021/06/19 03:48:18;;;;;;;10.25;7.45;;;;;;;19.40;78.96;97922.50;4993564;28;20912;-74
2021/06/19 03:50:44;;;;;;;11.07;6.55;;;;;;;19.54;78.13;97928.47;4993274;28;20030;-75
2021/06/19 03:53:09;;;;;;;14.02;6.78;;;;;;;19.58;77.67;97937.66;4993265;28;20870;-74
2021/06/19 03:55:35;;;;;;;14.30;6.88;;;;;;;19.60;77.45;97937.34;4993319;28;20390;-74
2021/06/19 03:58:01;;;;;;;9.35;6.72;;;;;;;19.71;77.43;97938.41;4975763;28;20400;-74
2021/06/19 04:00:28;;;;;;;7.18;6.30;;;;;;;19.81;77.11;97937.91;4992260;28;20031;-75
2021/06/19 04:02:53;;;;;;;7.47;5.78;;;;;;;19.88;76.85;97932.53;4992340;28;20029;-74
2021/06/19 04:05:19;;;;;;;8.02;5.90;;;;;;;19.96;76.44;97928.78;4993349;28;20031;-74
2021/06/19 04:07:45;;;;;;;11.05;6.55;;;;;;;20.08;76.07;97936.25;4993696;28;20399;-74
2021/06/19 04:10:12;;;;;;;6.95;5.80;;;;;;;20.10;75.72;97945.81;4993028;28;20034;-75
2021/06/19 04:12:37;;;;;;;10.15;6.78;;;;;;;20.20;75.52;97947.25;4991649;28;20030;-74
2021/06/19 04:15:08;;;;;;;11.77;5.63;;;;;;;20.36;75.19;97955.63;4993251;28;20566;-74
2021/06/19 04:17:35;;;;;;;9.68;6.47;;;;;;;20.42;74.15;97941.09;4995454;28;20033;-74
2021/06/19 04:20:01;;;;;;;9.52;5.63;;;;;;;20.58;73.66;97954.97;5012761;28;20038;-74
2021/06/19 04:22:26;;;;;;;8.95;6.15;;;;;;;20.67;73.21;97953.63;5012628;28;20041;-75
2021/06/19 04:24:52;;;;;;;6.10;4.95;;;;;;;20.67;74.21;97958.38;5012902;28;20515;-75
2021/06/19 04:27:20;;;;;;;6.28;5.30;;;;;;;20.61;74.18;97945.91;5012584;28;20026;-74
2021/06/19 04:29:46;;;;;;;9.35;6.05;;;;;;;20.55;74.82;97955.69;4994959;28;20092;-74
2021/06/19 04:32:12;;;;;;;6.75;5.25;;;;;;;20.55;75.09;97962.03;5012461;28;20474;-75
2021/06/19 04:34:40;;;;;;;8.02;5.10;;;;;;;20.62;75.39;97964.19;4994921;28;20021;-74
2021/06/19 04:37:07;;;;;;;6.05;4.97;;;;;;;20.60;74.93;97963.75;4995118;28;20030;-74
2021/06/19 04:39:32;;;;;;;7.15;5.93;;;;;;;20.67;74.42;97964.75;5012143;28;20026;-74
2021/06/19 04:42:06;;;;;;;10.02;5.20;;;;;;;20.81;73.64;97969.81;5012048;28;20115;-74
2021/06/19 04:47:15;;;;;;;6.82;5.32;;;;;;;20.87;71.90;97979.50;5012393;28;20128;-76
2021/06/19 04:49:40;;;;;;;9.23;5.88;;;;;;;20.88;71.41;97971.97;4994111;28;20534;-74
2021/06/19 04:52:06;;;;;;;8.57;5.63;;;;;;;21.00;71.30;97975.44;5011316;28;20482;-74
2021/06/19 04:54:37;;;;;;;8.57;6.40;;;;;;;20.76;71.91;97972.88;5011427;28;20033;-76
2021/06/19 04:57:07;;;;;;;8.85;5.18;;;;;;;20.78;72.14;97970.53;5012002;28;20379;-74
2021/06/19 04:59:34;;;;;;;10.98;6.35;;;;;;;20.88;71.54;97975.56;5011666;28;20026;-74
2021/06/19 05:02:00;;;;;;;8.70;6.78;;;;;;;20.83;71.71;97973.84;5011617;28;20036;-74
2021/06/19 05:04:25;;;;;;;9.90;5.90;;;;;;;20.80;71.59;97968.19;5011631;28;20025;-74
2021/06/19 05:06:51;;;;;;;14.27;6.72;;;;;;;20.82;71.63;97968.66;5011746;28;20669;-75
2021/06/19 05:09:16;;;;;;;14.55;5.70;;;;;;;20.88;71.60;97969.19;5011550;28;20029;-74
2021/06/19 05:11:41;;;;;;;10.65;5.75;;;;;;;20.90;71.58;97970.41;5011654;28;20111;-74
2021/06/19 05:14:07;;;;;;;6.90;5.60;;;;;;;20.99;70.71;97970.25;5011422;28;20033;-73
2021/06/19 05:16:32;;;;;;;8.68;6.25;;;;;;;20.95;70.86;97970.16;5012695;28;20129;-74
2021/06/19 05:18:57;;;;;;;7.90;5.53;;;;;;;20.99;71.02;97978.59;4998992;28;20030;-74
2021/06/19 05:21:23;;;;;;;11.35;6.25;;;;;;;21.13;70.47;97976.94;4991797;28;20057;-73
2021/06/19 05:23:48;;;;;;;11.30;5.80;;;;;;;21.22;70.20;97985.91;4991360;28;20392;-73
2021/06/19 05:26:14;;;;;;;10.00;6.68;;;;;;;21.30;69.81;97987.66;4991954;28;20026;-73
2021/06/19 05:28:39;;;;;;;9.23;6.70;;;;;;;21.22;69.55;97991.47;4992065;28;20026;-73
2021/06/19 05:31:04;;;;;;;9.10;6.20;;;;;;;21.26;70.18;97989.56;4992029;28;20721;-73
2021/06/19 05:33:31;;;;;;;12.20;6.55;;;;;;;21.47;69.71;97996.75;4999273;28;20018;-73
2021/06/19 05:35:56;;;;;;;9.93;6.60;;;;;;;21.59;69.04;97997.41;5010810;28;20041;-73
2021/06/19 05:38:22;;;;;;;9.43;6.70;;;;;;;21.61;68.58;97992.31;5000335;28;20034;-73
2021/06/19 05:40:47;;;;;;;6.90;6.20;;;;;;;21.74;68.37;97990.16;4991384;28;20032;-73
2021/06/19 05:43:13;;;;;;;11.65;6.50;;;;;;;21.78;68.12;97991.84;4991161;28;20538;-73
2021/06/19 05:45:38;;;;;;;12.40;6.68;;;;;;;21.76;67.75;97991.41;4991434;28;20026;-74
2021/06/19 05:48:05;;;;;;;8.70;6.60;;;;;;;21.80;67.91;97988.69;4991136;28;20054;-72
2021/06/19 05:50:30;;;;;;;12.27;7.78;;;;;;;21.82;67.59;98003.06;5001873;28;20030;-72
2021/06/19 05:52:56;;;;;;;10.73;6.25;;;;;;;21.80;67.97;97994.28;5011103;28;20077;-72
2021/06/19 05:55:22;;;;;;;10.90;7.00;;;;;;;21.85;67.49;97991.16;5011118;28;20026;-74
2021/06/19 05:57:47;;;;;;;12.85;5.70;;;;;;;21.75;68.27;97987.00;5010864;28;20022;-74
2021/06/19 06:00:13;;;;;;;11.32;5.90;;;;;;;21.90;68.03;97988.09;5011056;28;20036;-74
2021/06/19 06:02:41;;;;;;;7.47;6.55;;;;;;;21.77;68.23;97989.44;5010779;28;20450;-73
2021/06/19 06:05:07;;;;;;;9.77;7.60;;;;;;;21.90;68.13;97990.91;5010857;28;20034;-72
2021/06/19 06:07:32;;;;;;;11.07;6.50;;;;;;;22.11;67.67;97976.56;5010031;28;20061;-73
2021/06/19 06:09:57;;;;;;;8.80;6.40;;;;;;;22.17;66.60;97975.09;5010963;28;20029;-72
2021/06/19 06:12:23;;;;;;;10.77;6.85;;;;;;;22.15;66.22;97971.84;5012712;28;20088;-73
2021/06/19 06:14:48;;;;;;;7.47;5.93;;;;;;;22.03;66.58;97963.66;4993109;28;20045;-73
2021/06/19 06:17:13;;;;;;;8.60;7.05;;;;;;;22.00;67.09;97973.59;4993049;28;20124;-73
2021/06/19 06:19:39;;;;;;;9.52;5.47;;;;;;;22.12;66.79;97969.81;4992529;28;20117;-72
2021/06/19 06:22:08;;;;;;;14.13;6.18;;;;;;;22.18;66.69;97969.13;4999205;28;20034;-74
2021/06/19 06:24:33;;;;;;;10.15;6.13;;;;;;;22.25;66.88;97969.25;4999564;28;20588;-72
2021/06/19 06:26:59;;;;;;;7.07;6.35;;;;;;;22.47;66.07;97961.25;5005272;28;20034;-72
2021/06/19 06:29:27;;;;;;;8.90;6.78;;;;;;;22.64;65.22;97960.75;4990496;28;20061;-73
2021/06/19 06:31:53;;;;;;;18.30;12.55;;;;;;;22.76;64.81;97953.03;4999112;28;20026;-73
2021/06/19 06:34:23;;;;;;;11.45;8.18;;;;;;;22.87;64.31;97948.38;4994698;28;20048;-75
2021/06/19 06:36:52;;;;;;;6.68;5.72;;;;;;;22.99;64.42;97952.97;4982719;28;20105;-74
2021/06/19 06:39:18;;;;;;;21.55;14.55;;;;;;;23.05;64.51;97959.81;5000127;28;20022;-74
2021/06/19 06:41:44;;;;;;;10.40;5.93;;;;;;;23.06;64.53;97971.78;4981761;28;20037;-75
2021/06/19 06:44:10;;;;;;;11.18;6.07;;;;;;;23.20;63.46;97960.81;5005161;28;20031;-78
2021/06/19 06:46:35;;;;;;;10.93;6.57;;;;;;;23.20;63.86;97956.03;5000706;28;20033;-72
2021/06/19 06:49:01;;;;;;;8.30;6.97;;;;;;;23.26;63.21;97954.53;4998393;28;20042;-74
2021/06/19 06:51:27;;;;;;;10.88;5.93;;;;;;;23.28;62.92;97945.75;4983544;28;20382;-72
2021/06/19 06:53:52;;;;;;;7.20;5.75;;;;;;;23.48;62.60;97952.03;5001231;28;20033;-78
2021/06/19 06:56:18;;;;;;;6.15;5.45;;;;;;;23.44;63.07;97952.00;5000182;28;20026;-72
2021/06/19 06:58:43;;;;;;;9.55;5.22;;;;;;;23.59;62.76;97953.00;4997550;28;20030;-72
2021/06/19 07:01:10;;;;;;;8.02;6.05;;;;;;;23.73;61.95;97950.34;4997170;28;20145;-71
2021/06/19 07:03:35;;;;;;;9.27;5.43;;;;;;;23.82;61.24;97950.84;5004132;28;20616;-72
2021/06/19 07:06:01;;;;;;;8.77;6.20;;;;;;;23.88;61.27;97946.53;5003545;28;20030;-71
2021/06/19 07:08:26;;;;;;;10.00;6.40;;;;;;;23.96;61.40;97945.44;5000162;28;20038;-70
2021/06/19 07:10:51;;;;;;;9.13;5.95;;;;;;;24.10;60.83;97953.13;4999596;28;20381;-72
2021/06/19 07:13:17;;;;;;;8.80;6.18;;;;;;;24.23;60.42;97940.50;4981534;28;20121;-73
2021/06/19 07:15:44;;;;;;;8.32;6.28;;;;;;;24.27;59.85;97939.38;5000013;28;20028;-72
2021/06/19 07:18:09;;;;;;;7.15;5.88;;;;;;;24.37;59.41;97935.84;5001366;28;20478;-72
2021/06/19 07:20:35;;;;;;;9.40;5.45;;;;;;;24.46;59.58;97930.72;5009032;28;20109;-71
2021/06/19 07:23:00;;;;;;;7.15;5.82;;;;;;;24.61;58.53;97928.84;5002235;28;20061;-73
2021/06/19 07:25:26;;;;;;;8.60;7.68;;;;;;;24.75;58.11;97908.56;5001268;28;20025;-72
2021/06/19 07:27:54;;;;;;;9.52;5.90;;;;;;;24.78;58.12;97914.16;5002060;28;20511;-73
2021/06/19 07:30:21;;;;;;;8.85;6.47;;;;;;;24.96;57.56;97917.13;5001058;28;20030;-72
2021/06/19 07:32:47;;;;;;;8.05;4.78;;;;;;;25.10;57.72;97916.38;5005138;28;20715;-74
2021/06/19 07:35:13;;;;;;;8.10;5.47;;;;;;;25.26;57.33;97922.47;5005287;28;20022;-74
2021/06/19 07:37:38;;;;;;;7.30;5.60;;;;;;;25.40;57.25;97925.38;5004063;28;20341;-73
2021/06/19 07:40:05;;;;;;;7.70;5.10;;;;;;;25.58;56.86;97925.44;5003809;28;20121;-74
2021/06/19 07:42:35;;;;;;;7.80;5.25;;;;;;;25.66;55.92;97915.84;5000874;28;20049;-73
2021/06/19 07:45:03;;;;;;;8.65;4.45;;;;;;;25.82;55.73;97902.28;5001773;28;20042;-73
2021/06/19 07:47:28;;;;;;;6.70;5.93;;;;;;;25.86;54.99;97900.31;4986106;28;20507;-73
2021/06/19 07:49:54;;;;;;;11.48;6.22;;;;;;;25.76;55.01;97899.09;5001434;28;20126;-72
2021/06/19 07:52:20;;;;;;;8.85;6.28;;;;;;;25.72;55.38;97909.47;5002476;28;20049;-73
2021/06/19 07:54:45;;;;;;;6.90;5.75;;;;;;;25.77;55.20;97911.09;5002518;28;20519;-72
2021/06/19 07:57:11;;;;;;;7.00;4.55;;;;;;;25.89;55.44;97919.94;5000680;28;20449;-73
2021/06/19 07:59:37;;;;;;;9.43;6.03;;;;;;;26.06;54.67;97921.19;5002339;28;20045;-72
2021/06/19 08:02:03;;;;;;;10.43;5.28;;;;;;;26.23;54.35;97917.63;5002480;28;20030;-72
2021/06/19 08:04:28;;;;;;;5.22;4.70;;;;;;;26.46;54.05;97904.00;5001980;28;20030;-71
2021/06/19 08:06:54;;;;;;;7.22;4.82;;;;;;;26.73;53.30;97906.38;5002353;28;20400;-71
2021/06/19 08:09:19;;;;;;;6.10;4.80;;;;;;;26.95;53.08;97896.75;5003631;28;20049;-72
2021/06/19 08:11:45;;;;;;;6.32;4.05;;;;;;;27.16;52.71;97902.28;5000303;28;20625;-72
2021/06/19 08:14:10;;;;;;;9.32;5.15;;;;;;;27.34;52.24;97896.63;4999326;28;20497;-72
2021/06/19 08:16:36;;;;;;;8.27;4.97;;;;;;;27.50;51.38;97903.41;5008037;28;20045;-72
2021/06/19 08:19:01;;;;;;;5.95;4.82;;;;;;;27.63;50.74;97895.31;5013271;28;20561;-71
2021/06/19 08:21:27;;;;;;;4.40;4.00;;;;;;;27.79;50.55;97894.81;5012733;28;20076;-72
2021/06/19 08:23:52;;;;;;;7.78;4.30;;;;;;;27.96;50.37;97899.53;5012581;28;20164;-71
2021/06/19 08:26:18;;;;;;;8.35;4.72;;;;;;;28.10;49.90;97905.91;5012074;28;20041;-71
2021/06/19 08:28:44;;;;;;;7.05;5.03;;;;;;;28.23;49.79;97897.78;5005272;28;20117;-73
2021/06/19 08:31:09;;;;;;;9.68;6.00;;;;;;;29.46;46.75;97901.44;5011426;28;20168;-73
2021/06/19 08:33:35;;;;;;;6.10;4.88;;;;;;;30.08;44.96;97889.72;5012292;28;20034;-71
2021/06/19 08:36:00;;;;;;;9.43;5.30;;;;;;;30.39;44.26;97890.47;5012397;28;20033;-73
2021/06/19 08:38:26;;;;;;;6.90;5.60;;;;;;;30.49;43.41;97889.50;5012690;28;20033;-74
2021/06/19 08:40:52;;;;;;;7.50;4.63;;;;;;;30.78;43.53;97878.50;5012376;28;20479;-77
2021/06/19 08:43:19;;;;;;;9.82;5.43;;;;;;;30.99;42.74;97883.78;5012333;28;20076;-81
2021/06/19 08:45:48;;;;;;;11.23;5.53;;;;;;;30.44;43.60;97894.84;4994486;28;20033;-73
2021/06/19 08:48:17;;;;;;;9.90;6.57;;;;;;;30.55;43.91;97873.66;5011860;28;20131;-76
2021/06/19 08:50:43;;;;;;;7.68;5.50;;;;;;;30.81;42.79;97880.47;5011942;28;20030;-74
2021/06/19 08:53:08;;;;;;;13.38;7.00;;;;;;;30.42;43.78;97878.31;4994373;28;20504;-82
2021/06/19 08:55:34;;;;;;;7.07;5.72;;;;;;;29.37;45.91;97872.16;5011868;28;20034;-77
2021/06/19 08:57:59;;;;;;;9.88;5.82;;;;;;;29.52;45.81;97876.38;5011706;28;20033;-73
2021/06/19 09:00:24;;;;;;;7.40;5.25;;;;;;;30.35;44.40;97871.97;5011656;28;20065;-73
2021/06/19 09:02:52;;;;;;;6.95;4.95;;;;;;;30.59;44.08;97870.78;4999605;28;20391;-74
2021/06/19 09:05:25;;;;;;;10.20;6.80;;;;;;;30.02;44.36;97865.22;5011359;28;20249;-73
2021/06/19 09:07:52;;;;;;;9.02;6.25;;;;;;;30.37;44.11;97861.84;5004770;28;20181;-72
2021/06/19 09:10:28;;;;;;;9.77;5.78;;;;;;;30.49;43.98;97858.44;4992050;28;20023;-72
2021/06/19 09:13:12;;;;;;;10.15;5.97;;;;;;;31.12;43.96;97853.66;4991917;28;20039;-73
2021/06/19 09:15:50;;;;;;;9.55;5.70;;;;;;;30.95;48.34;97846.31;4992224;28;20022;-77
2021/06/19 09:18:29;;;;;;;15.70;6.72;;;;;;;29.15;58.20;97834.94;4992053;28;20497;-73
2021/06/19 09:21:01;;;;;;;7.75;6.72;;;;;;;28.30;51.04;97829.38;5003515;28;20041;-72
2021/06/19 09:23:43;;;;;;;14.05;6.45;;;;;;;28.17;50.11;97821.44;5000644;28;20030;-74
2021/06/19 09:26:20;;;;;;;8.27;7.15;;;;;;;28.29;52.14;97828.56;4992211;28;20041;-74
2021/06/19 09:28:55;;;;;;;9.15;6.90;;;;;;;28.99;49.11;97826.28;4992155;28;20026;-74
2021/06/19 09:31:43;;;;;;;11.48;6.68;;;;;;;29.45;48.24;97832.16;5011269;28;20029;-73
2021/06/19 09:34:13;;;;;;;12.85;7.45;;;;;;;29.47;47.75;97823.28;5011395;28;20064;-72
2021/06/19 09:37:08;;;;;;;7.20;6.25;;;;;;;29.48;46.42;97822.03;5011511;28;20022;-73
2021/06/19 09:39:35;;;;;;;5.97;5.22;;;;;;;29.77;47.36;97826.06;5011465;28;20026;-73
2021/06/19 09:42:06;;;;;;;7.70;6.05;;;;;;;29.20;47.35;97826.00;5010720;28;20495;-73
2021/06/19 09:44:38;;;;;;;9.48;6.97;;;;;;;29.25;46.58;97827.59;4993711;28;20065;-74
2021/06/19 09:47:04;;;;;;;7.15;6.30;;;;;;;29.46;45.51;97825.31;5009612;28;20440;-73
2021/06/19 09:49:38;;;;;;;6.50;5.90;;;;;;;29.61;45.79;97825.91;5010837;28;20113;-73
2021/06/19 09:52:04;;;;;;;7.18;6.40;;;;;;;29.99;46.09;97827.38;5010746;28;20041;-74
2021/06/19 09:54:30;;;;;;;11.20;5.80;;;;;;;30.38;45.40;97826.72;4993034;28;20026;-76
2021/06/19 09:57:01;;;;;;;6.40;5.38;;;;;;;29.87;46.10;97835.63;5010580;28;20501;-73
2021/06/19 09:59:33;;;;;;;6.88;5.50;;;;;;;29.70;46.29;97828.97;5010892;28;20105;-73
2021/06/19 10:02:01;;;;;;;6.28;5.18;;;;;;;29.55;45.63;97825.56;5010934;28;20054;-73
2021/06/19 10:04:28;;;;;;;6.07;5.25;;;;;;;29.45;48.07;97823.69;5010508;28;20525;-72
2021/06/19 10:06:57;;;;;;;5.82;5.22;;;;;;;29.56;46.36;97821.53;4992798;28;20030;-74
2021/06/19 10:09:23;;;;;;;5.47;4.97;;;;;;;29.74;46.46;97822.06;5009248;28;20180;-74
2021/06/19 10:11:51;;;;;;;10.88;5.22;;;;;;;29.89;47.34;97827.53;5010626;28;20033;-74
2021/06/19 10:14:19;;;;;;;6.60;4.50;;;;;;;30.09;46.26;97825.59;5010637;28;20031;-73
2021/06/19 10:16:49;;;;;;;5.57;5.07;;;;;;;30.14;45.19;97825.09;5010577;28;20034;-75
2021/06/19 10:19:25;;;;;;;7.38;5.95;;;;;;;30.10;46.47;97821.56;4995781;28;20360;-73
2021/06/19 10:21:51;;;;;;;;;;;;;;;29.93;47.39;97823.44;4991709;28;20085;-73
2021/06/19 10:24:19;;;;;;;6.25;5.65;;;;;;;29.99;47.22;97821.72;4990912;28;19920;-73
2021/06/19 10:26:45;;;;;;;7.47;5.78;;;;;;;29.96;47.57;97816.13;4999735;28;20026;-74
2021/06/19 10:29:12;;;;;;;6.43;4.53;;;;;;;30.09;46.69;97814.31;5006342;28;20026;-76
2021/06/19 10:31:51;;;;;;;9.10;5.65;;;;;;;30.13;46.22;97812.25;5010168;28;20076;-72
2021/06/19 10:34:27;;;;;;;6.43;5.40;;;;;;;30.24;45.26;97813.66;5009872;28;20033;-72
2021/06/19 10:36:59;;;;;;;7.03;5.75;;;;;;;30.19;46.81;97814.16;4995453;28;20124;-72
2021/06/19 10:39:42;;;;;;;7.60;5.18;;;;;;;30.25;46.16;97812.44;4999350;28;20534;-72
2021/06/19 10:42:16;;;;;;;9.05;5.53;;;;;;;30.26;46.58;97816.06;5000812;28;20475;-73
2021/06/19 10:44:59;;;;;;;12.90;5.45;;;;;;;29.89;46.25;97807.78;4980779;28;20681;-70
2021/06/19 10:47:52;;;;;;;7.05;5.75;;;;;;;30.08;46.05;97804.25;4998747;28;20389;-74
2021/06/19 10:50:25;;;;;;;10.15;6.07;;;;;;;30.09;46.29;97815.13;4995628;28;20046;-75
2021/06/19 10:53:18;;;;;;;8.65;6.40;;;;;;;29.99;46.44;97804.00;4999715;28;20568;-72
2021/06/19 10:55:48;;;;;;;6.90;6.10;;;;;;;30.05;47.40;97802.28;4996680;28;20046;-73
2021/06/19 10:58:20;;;;;;;12.32;5.63;;;;;;;30.11;46.49;97790.06;5004627;28;20037;-73
2021/06/19 11:00:49;;;;;;;7.72;6.40;;;;;;;30.24;45.61;97779.78;4985968;28;20037;-74
2021/06/19 11:03:17;;;;;;;10.77;6.63;;;;;;;30.36;45.38;97781.16;5003738;28;20501;-74
2021/06/19 11:05:42;;;;;;;6.05;5.00;;;;;;;30.40;45.41;97779.13;5001264;28;20479;-72
2021/06/19 11:08:12;;;;;;;10.43;5.90;;;;;;;30.42;45.45;97781.53;5005454;28;20117;-75
2021/06/19 11:10:58;;;;;;;6.65;5.95;;;;;;;30.48;45.23;97777.75;5004240;28;20049;-72
2021/06/19 11:13:34;;;;;;;6.40;5.35;;;;;;;30.56;45.91;97776.41;4983539;28;20025;-73
2021/06/19 11:16:04;;;;;;;6.53;5.40;;;;;;;30.69;45.55;97768.88;5001520;28;20034;-73
2021/06/19 11:18:49;;;;;;;7.18;6.22;;;;;;;30.75;43.83;97772.00;4985025;28;20057;-75
2021/06/19 11:21:18;;;;;;;7.90;5.65;;;;;;;30.75;44.09;97758.69;5003879;28;20037;-73
2021/06/19 11:24:02;;;;;;;6.78;6.10;;;;;;;30.74;44.81;97756.28;5003344;28;20038;-76
2021/06/19 11:26:55;;;;;;;10.63;7.13;;;;;;;30.82;44.29;97754.09;5002157;28;20033;-73
2021/06/19 11:29:41;;;;;;;7.60;5.78;;;;;;;30.89;43.39;97751.91;5002731;28;20026;-74
2021/06/19 11:32:26;;;;;;;7.72;6.10;;;;;;;30.99;42.39;97752.97;4984161;28;20479;-73
2021/06/19 11:34:59;;;;;;;7.43;6.00;;;;;;;31.08;42.17;97741.88;5003393;28;20058;-76
2021/06/19 11:37:58;;;;;;;6.68;6.05;;;;;;;31.09;41.62;97746.28;5003557;28;20072;-73